AirportWindKnotsOPERATIONSMETAR
KBWIVRB628(D) 33L(A) 33R(A/D)-PROPS KBWI 181254Z VRB06KT 10SM FEW065 FEW160 SCT250 24/17 A2995 RMK AO2 SLP139 T02390167
KDCA350131 (D/A) 33 (D/A)-RJ/PROPS KDCA 181252Z 35013KT 10SM BKN250 24/16 A2997 RMK AO2 SLP148 T02440156
KIAD310830 (D) 1L/1C/1R (A) KIAD 181252Z 31008KT 10SM CLR 22/16 A2999 RMK AO2 SLP152 T02220156
KRDU040105L/5R (D/A) KRDU 181251Z 04010KT 10SM SCT100 BKN250 24/21 A2998 RMK AO2 SLP147 T02440206



The information contained on all pages of this website is to be used for flight simulation purposes only on the VATSIM network. It is not intended nor should it be used for real world navigation.This site is not affiliated with the FAA, the actual Washington Center or any governing aviation body. All content contained herein is approved only for use on the VATSIM network. ©2016 Virtual Washington ARTCC -- Source Code © 2016-2017 R. Rump, R. Murphy, W. Guisbond. Some scripts provided by VATEUD and VATUSA. Logo icons created by the Noun Project, CC 17.
By using this website you agree to all VATSIM Privacy Regulations as can be found on https://www.vatsim.net/documents/privacy-policy. This website uses cookies to track your login information whichonly includes your VATSIM ID and ATC rating.